Time;durP1;ratioP1;P1;durP2;ratioP2;P2;SDS_P1;SDS_P2;PMS_P1;PMS_P2;Temp;Humidity;BMP_temperature;BMP_pressure;BME280_temperature;BME280_humidity;BME280_pressure;Samples;Min_cycle;Max_cycle;Signal;HPM_P1;HPM_P2
2023/04/06 00:01:31;;;;;;;13.10;5.90;;;5.10;1.00;;;;;;5056264;28;20031;-71
2023/04/06 00:03:57;;;;;;;16.67;6.97;;;5.10;1.00;;;;;;5060502;28;20086;-71
2023/04/06 00:06:23;;;;;;;16.10;6.63;;;5.20;1.00;;;;;;5051620;28;20478;-71
2023/04/06 00:08:48;;;;;;;18.60;6.70;;;5.00;1.00;;;;;;5051116;28;20025;-70
2023/04/06 00:11:14;;;;;;;16.08;6.70;;;5.00;1.00;;;;;;5051576;28;20382;-69
2023/04/06 00:13:40;;;;;;;17.65;6.13;;;4.90;1.00;;;;;;5051249;28;20082;-70
2023/04/06 00:16:06;;;;;;;17.60;6.82;;;4.80;1.00;;;;;;5051702;28;20035;-70
2023/04/06 00:18:32;;;;;;;13.65;6.47;;;4.70;1.00;;;;;;5051600;28;20075;-70
2023/04/06 00:20:57;;;;;;;16.27;7.03;;;4.70;1.00;;;;;;5051581;28;20021;-71
2023/04/06 00:23:23;;;;;;;16.58;6.85;;;4.70;1.00;;;;;;5051217;28;20032;-69
2023/04/06 00:25:49;;;;;;;13.60;6.60;;;4.60;1.00;;;;;;5051429;28;20025;-70
2023/04/06 00:28:14;;;;;;;13.82;6.72;;;4.70;1.00;;;;;;5051459;28;20021;-70
2023/04/06 00:30:40;;;;;;;16.13;6.53;;;4.70;1.00;;;;;;5051695;28;20029;-70
2023/04/06 00:33:06;;;;;;;13.23;6.55;;;4.70;1.00;;;;;;5051221;28;20029;-70
2023/04/06 00:35:32;;;;;;;14.38;6.97;;;4.80;1.00;;;;;;5051803;28;20034;-70
2023/04/06 00:37:58;;;;;;;14.23;6.68;;;4.70;1.00;;;;;;5051695;28;20336;-71
2023/04/06 00:40:23;;;;;;;17.88;7.60;;;4.70;1.00;;;;;;5051449;28;20083;-70
2023/04/06 00:42:49;;;;;;;12.18;6.50;;;4.70;1.00;;;;;;5051132;28;20033;-70
2023/04/06 00:45:15;;;;;;;19.88;7.43;;;4.60;1.00;;;;;;5051418;28;20051;-72
2023/04/06 00:47:41;;;;;;;18.13;6.97;;;4.50;1.00;;;;;;5051389;28;20029;-71
2023/04/06 00:50:07;;;;;;;14.48;6.80;;;4.50;1.00;;;;;;5051814;28;20025;-70
2023/04/06 00:52:34;;;;;;;12.02;6.82;;;4.40;1.00;;;;;;5051087;28;20030;-72
2023/04/06 00:55:00;;;;;;;18.60;7.28;;;4.30;1.00;;;;;;5051133;28;20044;-70
2023/04/06 00:57:25;;;;;;;15.00;6.70;;;4.30;1.00;;;;;;5050841;28;20486;-70
2023/04/06 00:59:52;;;;;;;17.58;8.05;;;4.30;1.00;;;;;;5051099;28;20025;-71
2023/04/06 01:02:18;;;;;;;18.55;7.03;;;4.30;1.00;;;;;;5051037;28;20364;-71
2023/04/06 01:04:44;;;;;;;13.93;6.60;;;4.30;1.00;;;;;;5057963;28;20040;-70
2023/04/06 01:07:10;;;;;;;14.38;7.07;;;4.20;1.00;;;;;;5071400;28;20020;-71
2023/04/06 01:09:36;;;;;;;16.25;6.18;;;4.20;1.00;;;;;;5070864;28;20025;-70
2023/04/06 01:12:01;;;;;;;15.77;6.25;;;4.20;1.00;;;;;;5070861;28;20028;-71
2023/04/06 01:14:27;;;;;;;15.95;6.55;;;4.10;1.00;;;;;;5070800;28;20025;-70
2023/04/06 01:16:53;;;;;;;15.85;6.10;;;4.10;1.00;;;;;;5071001;28;20048;-72
2023/04/06 01:19:20;;;;;;;10.52;5.88;;;4.10;1.00;;;;;;5070631;28;20448;-71
2023/04/06 01:21:46;;;;;;;17.08;6.90;;;4.00;1.00;;;;;;5072412;28;20040;-71
2023/04/06 01:24:12;;;;;;;17.00;6.57;;;4.00;1.00;;;;;;5074234;28;20043;-71
2023/04/06 01:26:38;;;;;;;20.27;6.93;;;4.00;1.10;;;;;;5075433;28;20021;-71
2023/04/06 01:29:04;;;;;;;17.00;7.35;;;3.90;1.00;;;;;;5075346;28;20470;-71
2023/04/06 01:31:30;;;;;;;18.73;7.53;;;4.00;4.20;;;;;;5075336;28;20089;-71
2023/04/06 01:33:56;;;;;;;15.20;7.18;;;4.00;4.00;;;;;;5075385;28;20581;-72
2023/04/06 01:36:22;;;;;;;20.95;7.53;;;4.00;2.10;;;;;;5074598;28;20111;-70
2023/04/06 01:38:48;;;;;;;13.90;7.50;;;4.00;1.00;;;;;;5074148;28;20107;-70
2023/04/06 01:41:14;;;;;;;16.60;7.20;;;4.00;1.50;;;;;;5074355;28;20120;-71
2023/04/06 01:43:39;;;;;;;18.45;8.27;;;4.00;2.90;;;;;;5073699;28;20020;-71
2023/04/06 01:46:05;;;;;;;15.77;7.57;;;4.00;5.00;;;;;;5074399;28;20048;-70
2023/04/06 01:48:31;;;;;;;13.95;7.88;;;4.00;3.20;;;;;;5074060;28;20485;-70
2023/04/06 01:50:57;;;;;;;15.90;6.93;;;4.00;3.90;;;;;;5074523;28;20059;-69
2023/04/06 01:53:23;;;;;;;18.55;7.68;;;4.00;3.80;;;;;;5073688;28;20052;-71
2023/04/06 01:55:48;;;;;;;18.38;7.88;;;4.00;6.10;;;;;;5074240;28;20482;-70
2023/04/06 01:58:14;;;;;;;19.17;7.15;;;4.00;3.50;;;;;;5074378;28;20051;-70
2023/04/06 02:00:40;;;;;;;15.90;6.80;;;4.00;6.00;;;;;;5075330;28;20148;-71
2023/04/06 02:03:06;;;;;;;17.15;7.25;;;4.00;4.50;;;;;;5074430;28;20127;-70
2023/04/06 02:05:37;;;;;;;12.57;7.15;;;3.90;5.90;;;;;;5073882;28;20035;-71
2023/04/06 02:08:07;;;;;;;15.43;6.50;;;3.90;6.80;;;;;;5074829;28;20020;-70
2023/04/06 02:10:34;;;;;;;14.43;7.20;;;3.80;11.30;;;;;;5074023;28;20051;-71
2023/04/06 02:12:59;;;;;;;17.30;8.20;;;3.80;11.40;;;;;;5073408;28;20020;-71
2023/04/06 02:15:26;;;;;;;18.63;8.20;;;3.70;15.70;;;;;;5074049;28;20020;-71
2023/04/06 02:17:51;;;;;;;17.25;7.55;;;3.70;18.20;;;;;;5074184;28;20132;-70
2023/04/06 02:20:17;;;;;;;15.85;7.55;;;3.70;21.00;;;;;;5074663;28;20112;-71
2023/04/06 02:22:43;;;;;;;16.25;7.80;;;3.70;23.80;;;;;;5061175;28;20044;-70
2023/04/06 02:25:09;;;;;;;16.40;7.47;;;3.70;26.40;;;;;;5061996;28;20031;-73
2023/04/06 02:27:35;;;;;;;14.90;6.80;;;3.70;28.60;;;;;;5065199;28;20024;-71
2023/04/06 02:30:02;;;;;;;15.10;6.93;;;3.70;27.60;;;;;;5060654;28;20036;-71
2023/04/06 02:32:27;;;;;;;17.50;8.00;;;3.80;28.70;;;;;;5061370;28;20045;-70
2023/04/06 02:34:53;;;;;;;19.65;8.10;;;3.70;24.60;;;;;;5067154;28;20023;-70
2023/04/06 02:37:19;;;;;;;15.85;7.30;;;3.70;22.80;;;;;;5060216;28;20040;-72
2023/04/06 02:39:45;;;;;;;16.95;7.90;;;3.70;23.90;;;;;;5064752;28;20087;-71
2023/04/06 02:42:10;;;;;;;14.75;7.03;;;3.60;25.00;;;;;;5065445;28;20036;-71
2023/04/06 02:44:36;;;;;;;18.88;7.35;;;3.60;27.80;;;;;;5062295;28;20032;-72
2023/04/06 02:47:02;;;;;;;18.85;7.43;;;3.60;29.60;;;;;;5061814;28;20390;-72
2023/04/06 02:49:27;;;;;;;16.13;7.82;;;3.60;30.70;;;;;;5061248;28;20552;-71
2023/04/06 02:51:53;;;;;;;15.32;8.27;;;3.60;32.60;;;;;;5064132;28;20013;-72
2023/04/06 02:54:19;;;;;;;21.65;7.50;;;3.60;29.60;;;;;;5064390;28;20070;-71
2023/04/06 02:56:45;;;;;;;15.13;7.53;;;3.50;30.00;;;;;;5063169;28;20044;-71
2023/04/06 02:59:10;;;;;;;14.60;7.32;;;3.50;31.80;;;;;;5058389;28;20430;-77
2023/04/06 03:01:36;;;;;;;17.67;7.80;;;3.50;32.80;;;;;;5052916;28;20025;-71
2023/04/06 03:04:03;;;;;;;21.95;10.02;;;3.50;33.70;;;;;;5052666;28;20029;-71
2023/04/06 03:06:28;;;;;;;16.92;8.20;;;3.40;34.50;;;;;;5052687;28;20021;-71
2023/04/06 03:08:54;;;;;;;16.23;7.85;;;3.40;33.70;;;;;;5052574;28;20043;-72
2023/04/06 03:11:20;;;;;;;17.58;7.85;;;3.40;35.20;;;;;;5052776;28;20029;-71
2023/04/06 03:13:46;;;;;;;17.50;7.68;;;3.30;36.70;;;;;;5053276;28;20079;-72
2023/04/06 03:16:11;;;;;;;14.88;7.65;;;3.30;38.60;;;;;;5053784;28;20033;-72
2023/04/06 03:18:37;;;;;;;16.73;7.90;;;3.30;38.60;;;;;;5055397;28;20025;-73
2023/04/06 03:21:03;;;;;;;18.20;8.93;;;3.30;40.90;;;;;;5053539;28;20025;-72
2023/04/06 03:23:29;;;;;;;17.73;8.38;;;3.20;39.60;;;;;;5058698;28;20118;-70
2023/04/06 03:25:54;;;;;;;18.50;8.13;;;3.10;42.80;;;;;;5072498;28;20027;-70
2023/04/06 03:28:20;;;;;;;18.80;7.88;;;3.10;46.70;;;;;;5071807;28;20032;-68
2023/04/06 03:30:46;;;;;;;13.98;7.13;;;3.10;44.70;;;;;;5072133;28;20543;-71
2023/04/06 03:33:11;;;;;;;15.80;8.05;;;3.10;50.60;;;;;;5071856;28;20021;-69
2023/04/06 03:35:37;;;;;;;19.25;8.57;;;3.00;51.20;;;;;;5072023;28;20021;-71
2023/04/06 03:38:04;;;;;;;16.65;8.20;;;3.10;52.40;;;;;;5072376;28;20113;-70
2023/04/06 03:40:30;;;;;;;16.33;8.02;;;3.10;54.40;;;;;;5073710;28;20030;-71
2023/04/06 03:42:56;;;;;;;18.35;8.50;;;3.00;58.20;;;;;;5072819;28;20367;-71
2023/04/06 03:45:22;;;;;;;17.20;7.72;;;3.00;60.10;;;;;;5072170;28;20126;-72
2023/04/06 03:47:47;;;;;;;15.95;8.07;;;3.00;61.80;;;;;;5072265;28;20397;-70
2023/04/06 03:50:13;;;;;;;18.35;9.00;;;3.10;63.10;;;;;;5072346;28;20518;-70
2023/04/06 03:52:39;;;;;;;25.95;10.63;;;3.10;60.90;;;;;;5071621;28;20093;-70
2023/04/06 03:55:05;;;;;;;24.80;11.15;;;3.10;60.80;;;;;;5072011;28;20107;-71
2023/04/06 03:57:31;;;;;;;21.55;9.68;;;3.10;57.10;;;;;;5071830;28;20036;-70
2023/04/06 03:59:56;;;;;;;26.45;11.05;;;3.10;56.50;;;;;;5072089;28;20025;-69
2023/04/06 04:02:22;;;;;;;23.88;10.13;;;3.00;54.40;;;;;;5071807;28;20025;-71
2023/04/06 04:04:47;;;;;;;18.80;9.63;;;3.00;56.50;;;;;;5072283;28;20092;-74
2023/04/06 04:07:13;;;;;;;25.85;10.27;;;3.00;60.10;;;;;;5071864;28;20027;-70
2023/04/06 04:09:39;;;;;;;29.25;11.13;;;3.00;62.30;;;;;;5071918;28;20023;-70
2023/04/06 04:12:05;;;;;;;24.92;10.38;;;3.00;63.70;;;;;;5071713;28;20021;-71
2023/04/06 04:14:30;;;;;;;18.73;9.52;;;3.00;60.60;;;;;;5071824;28;20029;-71
2023/04/06 04:16:56;;;;;;;22.27;10.02;;;2.90;62.80;;;;;;5071475;28;20023;-72
2023/04/06 04:19:21;;;;;;;18.60;9.20;;;2.90;63.50;;;;;;5071440;28;20040;-69
2023/04/06 04:21:47;;;;;;;19.08;8.80;;;2.90;60.30;;;;;;5071189;28;20032;-71
2023/04/06 04:24:13;;;;;;;20.88;8.27;;;2.90;61.30;;;;;;5071258;28;20081;-71
2023/04/06 04:26:40;;;;;;;23.48;9.57;;;2.80;60.90;;;;;;5071216;28;20017;-72
2023/04/06 04:29:06;;;;;;;22.45;9.82;;;2.80;62.80;;;;;;5071544;28;20036;-71
2023/04/06 04:31:32;;;;;;;24.48;11.70;;;2.80;65.40;;;;;;5071335;28;20021;-71
2023/04/06 04:34:00;;;;;;;24.65;10.52;;;2.70;65.70;;;;;;5071218;28;20371;-71
2023/04/06 04:36:26;;;;;;;21.02;9.27;;;2.80;73.10;;;;;;5071452;28;20391;-71
2023/04/06 04:38:52;;;;;;;21.90;10.35;;;2.80;76.50;;;;;;5071424;28;20025;-70
2023/04/06 04:41:18;;;;;;;15.63;8.77;;;2.80;79.40;;;;;;5071620;28;20052;-70
2023/04/06 04:43:44;;;;;;;21.65;9.20;;;2.80;81.00;;;;;;5073002;28;20067;-71
2023/04/06 04:46:10;;;;;;;20.67;10.18;;;2.90;82.90;;;;;;5076768;28;20537;-71
2023/04/06 04:48:35;;;;;;;22.42;9.88;;;2.90;82.40;;;;;;5077449;28;20048;-71
2023/04/06 04:51:01;;;;;;;22.67;9.68;;;2.90;83.90;;;;;;5078087;28;20496;-71
2023/04/06 04:53:27;;;;;;;24.15;9.27;;;2.90;82.70;;;;;;5078372;28;20024;-74
2023/04/06 04:55:53;;;;;;;23.77;10.27;;;3.00;83.50;;;;;;5077358;28;20055;-72
2023/04/06 04:58:19;;;;;;;18.85;9.73;;;3.00;83.50;;;;;;5076512;28;20036;-71
2023/04/06 05:00:45;;;;;;;22.00;9.82;;;2.90;83.00;;;;;;5075644;28;20060;-70
2023/04/06 05:03:24;;;;;;;26.13;10.15;;;3.00;85.30;;;;;;5075239;28;20503;-71
2023/04/06 05:05:50;;;;;;;26.15;10.82;;;3.10;85.20;;;;;;5075302;28;20028;-70
2023/04/06 05:08:16;;;;;;;20.40;8.93;;;3.10;86.20;;;;;;5074679;28;20107;-70
2023/04/06 05:10:41;;;;;;;27.77;10.35;;;3.10;85.90;;;;;;5074772;28;20127;-73
2023/04/06 05:13:07;;;;;;;21.98;9.88;;;3.20;86.20;;;;;;5075382;28;20025;-72
2023/04/06 05:15:37;;;;;;;24.65;11.20;;;3.20;85.00;;;;;;5074916;28;20020;-72
2023/04/06 05:18:04;;;;;;;24.10;10.68;;;3.30;81.80;;;;;;5074860;28;20040;-70
2023/04/06 05:20:30;;;;;;;23.70;10.98;;;3.30;80.30;;;;;;5074792;28;20541;-72
2023/04/06 05:22:56;;;;;;;23.30;10.70;;;3.30;81.70;;;;;;5065052;28;20037;-70
2023/04/06 05:25:22;;;;;;;20.15;10.38;;;3.30;81.20;;;;;;5063863;28;20031;-73
2023/04/06 05:27:47;;;;;;;22.85;10.80;;;3.30;81.00;;;;;;5067536;28;20024;-71
2023/04/06 05:30:13;;;;;;;22.98;10.23;;;3.30;80.00;;;;;;5066221;28;20074;-73
2023/04/06 05:32:39;;;;;;;19.63;10.10;;;3.30;81.30;;;;;;5063494;28;20289;-71
2023/04/06 05:35:05;;;;;;;20.50;10.50;;;3.30;81.60;;;;;;5062584;28;20116;-71
2023/04/06 05:37:31;;;;;;;22.52;9.63;;;3.30;81.50;;;;;;5063011;28;20123;-71
2023/04/06 05:39:56;;;;;;;16.88;9.93;;;3.40;82.70;;;;;;5062579;28;20455;-72
2023/04/06 05:42:22;;;;;;;24.25;9.52;;;3.40;82.00;;;;;;5062130;28;20051;-72
2023/04/06 05:44:48;;;;;;;21.73;10.20;;;3.40;78.50;;;;;;5066007;28;20028;-72
2023/04/06 05:47:14;;;;;;;20.90;10.05;;;3.50;80.70;;;;;;5066276;28;20383;-71
2023/04/06 05:49:42;;;;;;;29.80;11.80;;;3.50;79.80;;;;;;5064435;28;20023;-72
2023/04/06 05:52:09;;;;;;;21.48;10.07;;;3.50;81.30;;;;;;5065168;28;20402;-71
2023/04/06 05:54:36;;;;;;;28.35;10.70;;;3.60;81.90;;;;;;5064628;28;20040;-76
2023/04/06 05:57:02;;;;;;;23.20;11.10;;;3.60;79.00;;;;;;5060883;28;20102;-71
2023/04/06 05:59:31;;;;;;;27.05;10.35;;;3.60;76.00;;;;;;5061469;28;20033;-76
2023/04/06 06:01:57;;;;;;;18.55;9.88;;;3.70;75.10;;;;;;5048769;28;20029;-73
2023/04/06 06:04:22;;;;;;;21.20;9.63;;;3.70;70.90;;;;;;5068790;28;20082;-74
2023/04/06 06:06:48;;;;;;;19.67;9.65;;;3.70;72.70;;;;;;5061354;28;20120;-74
2023/04/06 06:09:14;;;;;;;18.50;10.10;;;3.70;71.60;;;;;;5061901;28;20033;-71
2023/04/06 06:11:40;;;;;;;25.80;10.05;;;3.80;70.10;;;;;;5053462;28;20363;-74
2023/04/06 06:14:06;;;;;;;24.58;10.30;;;3.90;62.00;;;;;;5053934;28;20683;-74
2023/04/06 06:16:32;;;;;;;31.50;11.52;;;3.90;60.70;;;;;;5053810;28;20056;-70
2023/04/06 06:18:58;;;;;;;21.27;10.68;;;3.90;59.20;;;;;;5053428;28;20028;-70
2023/04/06 06:21:23;;;;;;;24.05;10.23;;;3.90;55.20;;;;;;5053117;28;20055;-71
2023/04/06 06:23:50;;;;;;;28.50;10.35;;;4.00;51.90;;;;;;5053148;28;20448;-71
2023/04/06 06:26:15;;;;;;;22.90;10.82;;;4.10;46.30;;;;;;5053805;28;20104;-71
2023/04/06 06:28:41;;;;;;;22.10;10.73;;;4.10;46.80;;;;;;5053335;28;20489;-70
2023/04/06 06:31:07;;;;;;;26.40;11.10;;;4.20;40.60;;;;;;5053295;28;20103;-72
2023/04/06 06:33:32;;;;;;;24.08;10.98;;;4.30;37.50;;;;;;5053069;28;20021;-70
2023/04/06 06:35:58;;;;;;;28.67;13.07;;;4.40;35.20;;;;;;5053285;28;20024;-69
2023/04/06 06:38:24;;;;;;;23.30;11.23;;;4.40;24.80;;;;;;5053631;28;20037;-69
2023/04/06 06:40:50;;;;;;;18.38;10.60;;;4.50;23.50;;;;;;5035898;28;20499;-70
2023/04/06 06:43:15;;;;;;;20.63;10.40;;;4.60;19.90;;;;;;5053602;28;20028;-70
2023/04/06 06:45:41;;;;;;;24.10;11.15;;;4.70;1.00;;;;;;5053834;28;20025;-71
2023/04/06 06:48:07;;;;;;;18.70;10.60;;;4.80;1.00;;;;;;5053275;28;20105;-70
2023/04/06 06:50:33;;;;;;;22.95;10.88;;;4.90;1.00;;;;;;5053198;28;20104;-71
2023/04/06 06:52:58;;;;;;;24.55;11.23;;;5.00;1.00;;;;;;5052916;28;20095;-71
2023/04/06 06:55:25;;;;;;;24.45;10.88;;;5.10;1.00;;;;;;5052010;28;20025;-69
2023/04/06 06:57:51;;;;;;;31.42;12.85;;;5.10;1.00;;;;;;5051795;28;20040;-69
2023/04/06 07:00:17;;;;;;;20.08;10.73;;;5.30;1.00;;;;;;5051930;28;20207;-70
2023/04/06 07:02:42;;;;;;;27.02;13.48;;;5.40;1.00;;;;;;5051540;28;20021;-70
2023/04/06 07:05:08;;;;;;;21.02;10.80;;;5.50;1.00;;;;;;5051554;28;20483;-71
2023/04/06 07:07:34;;;;;;;26.38;11.23;;;5.60;1.00;;;;;;5051528;28;20025;-71
2023/04/06 07:10:00;;;;;;;27.13;11.35;;;5.70;1.00;;;;;;5052938;28;20025;-73
2023/04/06 07:12:26;;;;;;;30.88;12.18;;;5.80;1.00;;;;;;5052971;28;20021;-73
2023/04/06 07:14:52;;;;;;;19.30;9.43;;;5.90;1.00;;;;;;5053259;28;20033;-73
2023/04/06 07:17:18;;;;;;;23.20;10.52;;;6.10;1.00;;;;;;5052989;28;20104;-72
2023/04/06 07:19:45;;;;;;;21.95;9.15;;;6.20;1.00;;;;;;5053426;28;20033;-70
2023/04/06 07:22:11;;;;;;;23.10;9.93;;;6.30;99.90;;;;;;5055414;28;20021;-70
2023/04/06 07:24:36;;;;;;;18.77;9.75;;;6.40;99.90;;;;;;5052661;28;20051;-71
2023/04/06 07:27:02;;;;;;;19.30;9.18;;;6.50;99.90;;;;;;5052368;28;20032;-71
2023/04/06 07:29:28;;;;;;;23.02;10.05;;;6.50;1.00;;;;;;5035064;28;20344;-71
2023/04/06 07:31:54;;;;;;;22.45;10.05;;;6.70;1.00;;;;;;5052417;28;20077;-71
2023/04/06 07:34:20;;;;;;;23.55;10.13;;;6.70;1.00;;;;;;5051638;28;20025;-70
2023/04/06 07:36:46;;;;;;;23.02;9.05;;;6.90;99.90;;;;;;5051336;28;20043;-70
2023/04/06 07:39:12;;;;;;;22.17;8.98;;;7.00;99.30;;;;;;5052042;28;20031;-70
2023/04/06 07:41:37;;;;;;;24.58;8.77;;;7.10;1.00;;;;;;5051353;28;20025;-70
2023/04/06 07:44:04;;;;;;;31.13;8.52;;;7.20;1.00;;;;;;5050982;28;20029;-69
2023/04/06 07:46:30;;;;;;;26.10;9.05;;;7.30;1.00;;;;;;5051191;28;20072;-69
2023/04/06 07:48:57;;;;;;;18.50;8.43;;;7.40;99.90;;;;;;5051178;28;20021;-71
2023/04/06 07:51:23;;;;;;;24.30;8.38;;;7.60;1.00;;;;;;5052188;28;20024;-70
2023/04/06 07:53:50;;;;;;;19.23;8.68;;;7.60;99.90;;;;;;5053173;28;20025;-70
2023/04/06 07:56:16;;;;;;;19.48;7.88;;;7.70;99.90;;;;;;5058398;28;20502;-70
2023/04/06 07:58:42;;;;;;;16.80;7.25;;;7.80;1.00;;;;;;5071337;28;20028;-71
2023/04/06 08:01:07;;;;;;;25.05;8.02;;;7.90;1.00;;;;;;5034495;28;20028;-71
2023/04/06 08:03:37;;;;;;;19.50;7.82;;;8.00;99.90;;;;;;5051464;28;20112;-71
2023/04/06 08:06:03;;;;;;;17.60;7.43;;;8.00;1.00;;;;;;5052072;28;20108;-71
2023/04/06 08:08:30;;;;;;;16.65;6.72;;;8.20;1.00;;;;;;5051902;28;20230;-70
2023/04/06 08:10:56;;;;;;;16.60;7.05;;;8.30;99.90;;;;;;5051579;28;20032;-71
2023/04/06 08:13:22;;;;;;;21.08;8.18;;;8.40;1.00;;;;;;5051701;28;20031;-74
2023/04/06 08:15:47;;;;;;;16.80;7.18;;;8.40;99.90;;;;;;5052869;28;20029;-73
2023/04/06 08:18:13;;;;;;;13.88;6.90;;;8.50;99.90;;;;;;5051967;28;20029;-73
2023/04/06 08:20:40;;;;;;;13.95;6.85;;;8.60;99.90;;;;;;5051921;28;20076;-72
2023/04/06 08:23:06;;;;;;;16.50;6.95;;;8.70;99.90;;;;;;5051705;28;20043;-72
2023/04/06 08:25:37;;;;;;;26.75;7.03;;;8.80;40.20;;;;;;5051926;28;20025;-73
2023/04/06 08:28:04;;;;;;;13.07;6.85;;;9.00;1.00;;;;;;5053019;28;20021;-76
2023/04/06 08:30:29;;;;;;;15.98;7.05;;;9.00;1.00;;;;;;5055344;28;20017;-71
2023/04/06 08:32:55;;;;;;;20.75;6.32;;;9.10;99.90;;;;;;5058032;28;20021;-71
2023/04/06 08:35:21;;;;;;;16.02;6.57;;;9.10;99.90;;;;;;5058003;28;20025;-70
2023/04/06 08:37:46;;;;;;;17.05;6.78;;;9.20;99.90;;;;;;5057957;28;20027;-71
2023/04/06 08:40:13;;;;;;;16.23;7.22;;;9.30;99.90;;;;;;5058312;28;20583;-74
2023/04/06 08:42:50;;;;;;;16.88;6.32;;;9.40;90.70;;;;;;5059351;28;20028;-71
2023/04/06 08:45:17;;;;;;;30.00;13.82;;;9.40;1.00;;;;;;5056973;28;20065;-71
2023/04/06 08:47:43;;;;;;;17.92;6.97;;;9.50;1.00;;;;;;5056952;28;20370;-72
2023/04/06 08:50:13;;;;;;;13.57;6.53;;;9.60;1.00;;;;;;5056752;28;20017;-70
2023/04/06 08:52:40;;;;;;;14.65;7.18;;;9.60;1.00;;;;;;5057007;28;20490;-71
2023/04/06 08:55:06;;;;;;;15.45;6.82;;;9.60;1.00;;;;;;5057788;28;20021;-70
2023/04/06 08:57:32;;;;;;;16.48;6.93;;;9.70;1.00;;;;;;5057476;28;20045;-71
2023/04/06 08:59:59;;;;;;;13.90;7.22;;;9.80;99.90;;;;;;5057642;28;20103;-70
2023/04/06 09:02:27;;;;;;;14.50;7.38;;;10.10;99.90;;;;;;5057871;28;20025;-72
2023/04/06 09:04:53;;;;;;;14.32;7.13;;;10.50;99.90;;;;;;5058196;28;20546;-70
2023/04/06 09:07:19;;;;;;;17.88;7.50;;;11.10;99.90;;;;;;5058009;28;20029;-72
2023/04/06 09:09:48;;;;;;;11.88;7.13;;;11.80;90.80;;;;;;5057899;28;20092;-72
2023/04/06 09:12:28;;;;;;;12.80;6.75;;;12.50;1.00;;;;;;5058107;28;20027;-72
2023/04/06 09:14:55;;;;;;;14.93;6.72;;;13.30;1.00;;;;;;5059298;28;20017;-71
2023/04/06 09:17:29;;;;;;;12.77;6.95;;;14.10;1.00;;;;;;5059559;28;20401;-71
2023/04/06 09:19:55;;;;;;;15.15;6.75;;;14.60;1.00;;;;;;5059624;28;20079;-71
2023/04/06 09:22:22;;;;;;;14.25;5.70;;;15.00;1.00;;;;;;5057891;28;20029;-70
2023/04/06 09:24:51;;;;;;;15.70;5.90;;;15.70;1.00;;;;;;5058850;28;20437;-70
2023/04/06 09:27:17;;;;;;;11.70;5.50;;;15.50;1.00;;;;;;5058987;28;20028;-73
2023/04/06 09:29:44;;;;;;;16.75;5.32;;;15.40;1.00;;;;;;5059411;28;20431;-71
2023/04/06 09:32:11;;;;;;;11.43;4.93;;;15.40;1.00;;;;;;5059051;28;20025;-69
2023/04/06 09:34:39;;;;;;;12.18;5.07;;;15.30;1.00;;;;;;5057717;28;20046;-70
2023/04/06 09:37:18;;;;;;;11.45;4.97;;;15.40;1.00;;;;;;5057481;28;20439;-69
2023/04/06 09:39:45;;;;;;;18.20;5.68;;;15.40;1.00;;;;;;5058048;28;20029;-69
2023/04/06 09:42:24;;;;;;;10.60;5.47;;;15.40;1.00;;;;;;5054346;28;20039;-69
2023/04/06 09:44:50;;;;;;;13.05;5.47;;;15.00;1.00;;;;;;5054275;28;20021;-70
2023/04/06 09:47:16;;;;;;;11.00;5.65;;;14.60;1.00;;;;;;5054163;28;20424;-71
2023/04/06 09:49:44;;;;;;;15.95;6.05;;;14.50;1.00;;;;;;5059049;28;20017;-74
2023/04/06 09:52:12;;;;;;;12.82;5.43;;;14.30;1.00;;;;;;5064470;28;20037;-70
2023/04/06 09:54:38;;;;;;;8.93;5.18;;;14.10;1.00;;;;;;5066444;28;20561;-70
2023/04/06 09:57:28;;;;;;;14.75;7.53;;;13.90;1.00;;;;;;5065489;28;20036;-72
2023/04/06 10:00:12;;;;;;;14.80;6.43;;;14.00;1.00;;;;;;5059955;28;20020;-71
2023/04/06 10:02:59;;;;;;;20.73;6.70;;;13.70;1.00;;;;;;5065638;28;20052;-71
2023/04/06 10:05:41;;;;;;;11.02;5.57;;;13.40;1.00;;;;;;5068409;28;20033;-70
2023/04/06 10:08:10;;;;;;;18.38;6.53;;;13.10;1.00;;;;;;5062783;28;20027;-71
2023/04/06 10:10:36;;;;;;;19.25;6.93;;;13.00;1.00;;;;;;5064866;28;20107;-71
2023/04/06 10:13:03;;;;;;;15.30;6.68;;;12.90;1.00;;;;;;5067244;28;20056;-73
2023/04/06 10:15:30;;;;;;;19.90;6.57;;;12.70;1.00;;;;;;5061415;28;20025;-71
2023/04/06 10:18:01;;;;;;;12.30;5.93;;;12.70;1.00;;;;;;5055333;28;20108;-70
2023/04/06 10:20:55;;;;;;;12.52;5.90;;;12.60;1.00;;;;;;5055717;28;20451;-71
2023/04/06 10:23:39;;;;;;;16.90;5.20;;;12.70;1.00;;;;;;5058214;28;20094;-72
2023/04/06 10:26:05;;;;;;;8.90;4.75;;;12.70;1.00;;;;;;5054550;28;20021;-69
2023/04/06 10:28:35;;;;;;;10.27;5.13;;;12.60;1.00;;;;;;5054532;28;20536;-70
2023/04/06 10:31:04;;;;;;;18.92;5.95;;;12.60;1.00;;;;;;5036959;28;20178;-72
2023/04/06 10:33:29;;;;;;;17.60;5.32;;;12.70;1.00;;;;;;5056591;28;20024;-71
2023/04/06 10:35:55;;;;;;;10.80;4.97;;;12.80;1.00;;;;;;5055697;28;20112;-71
2023/04/06 10:38:32;;;;;;;10.63;5.40;;;12.80;1.00;;;;;;5053639;28;20032;-70
2023/04/06 10:41:04;;;;;;;11.65;5.38;;;12.70;1.00;;;;;;5053546;28;20028;-70
2023/04/06 10:43:35;;;;;;;12.52;5.57;;;12.90;1.00;;;;;;5053196;28;20032;-69
2023/04/06 10:46:00;;;;;;;14.23;5.18;;;13.00;1.00;;;;;;5053728;28;20032;-70
2023/04/06 10:48:36;;;;;;;13.38;6.45;;;13.20;1.00;;;;;;5053099;28;20021;-69
2023/04/06 10:51:08;;;;;;;11.13;5.75;;;13.30;1.00;;;;;;5035065;28;20029;-69
2023/04/06 10:53:34;;;;;;;14.85;6.05;;;13.20;1.00;;;;;;5052705;28;20102;-71
2023/04/06 10:56:00;;;;;;;15.50;6.47;;;13.20;1.00;;;;;;5054631;28;20029;-71
2023/04/06 10:58:27;;;;;;;13.07;5.90;;;13.30;1.00;;;;;;5054330;28;20029;-70
2023/04/06 11:00:55;;;;;;;16.13;6.50;;;13.40;1.00;;;;;;5053866;28;20032;-70
2023/04/06 11:03:20;;;;;;;12.68;6.75;;;13.60;1.00;;;;;;5055360;28;20032;-70
2023/04/06 11:05:50;;;;;;;12.38;6.30;;;13.70;1.00;;;;;;5053519;28;20032;-71
2023/04/06 11:08:37;;;;;;;15.40;6.85;;;13.90;1.00;;;;;;5053230;28;20025;-69
2023/04/06 11:11:15;;;;;;;18.10;7.40;;;14.30;1.00;;;;;;5052312;28;20017;-69
2023/04/06 11:13:41;;;;;;;14.27;7.13;;;14.50;1.00;;;;;;5052200;28;20025;-69
2023/04/06 11:16:12;;;;;;;21.35;7.35;;;15.10;1.00;;;;;;5052673;28;20471;-69
2023/04/06 11:18:37;;;;;;;11.77;6.95;;;15.80;1.00;;;;;;5052680;28;20036;-70
2023/04/06 11:21:03;;;;;;;13.80;6.90;;;16.20;1.00;;;;;;5053167;28;20021;-69
2023/04/06 11:23:29;;;;;;;14.95;7.38;;;16.50;1.00;;;;;;5052120;28;20040;-69
2023/04/06 11:25:54;;;;;;;11.60;7.07;;;16.80;1.00;;;;;;5052637;28;20025;-69
2023/04/06 11:28:20;;;;;;;11.18;7.05;;;17.10;1.00;;;;;;5052152;28;20021;-72
2023/04/06 11:30:47;;;;;;;13.50;7.47;;;17.80;1.00;;;;;;5053406;28;20446;-71
2023/04/06 11:33:21;;;;;;;16.63;7.93;;;18.30;99.90;;;;;;5054328;28;20386;-70
2023/04/06 11:35:47;;;;;;;14.35;8.27;;;18.50;99.90;;;;;;5052727;28;20482;-69
2023/04/06 11:38:12;;;;;;;15.88;8.43;;;19.80;99.90;;;;;;5052413;28;20047;-70
2023/04/06 11:40:38;;;;;;;15.20;8.60;;;20.00;99.90;;;;;;5052303;28;20025;-70
2023/04/06 11:43:04;;;;;;;15.25;7.90;;;20.50;99.90;;;;;;5051890;28;20029;-70
2023/04/06 11:45:43;;;;;;;13.10;7.93;;;20.40;99.90;;;;;;5052838;28;20028;-73
2023/04/06 11:48:18;;;;;;;16.25;8.10;;;20.50;99.90;;;;;;5052584;28;20057;-72
2023/04/06 11:50:47;;;;;;;12.93;7.70;;;20.70;99.90;;;;;;5052627;28;20029;-70
2023/04/06 11:53:13;;;;;;;15.18;8.05;;;;;;;;;;5034647;28;20029;-71
2023/04/06 11:55:39;;;;;;;13.88;7.57;;;22.30;99.90;;;;;;5052690;28;20017;-70
2023/04/06 11:58:06;;;;;;;16.90;8.00;;;23.10;99.90;;;;;;5052872;28;20053;-69
2023/04/06 12:00:34;;;;;;;18.48;9.68;;;23.20;99.90;;;;;;5052687;28;20434;-70
2023/04/06 12:03:00;;;;;;;12.93;7.55;;;24.10;99.90;;;;;;5051442;28;20104;-70
2023/04/06 12:05:26;;;;;;;12.07;7.78;;;24.20;99.90;;;;;;5051147;28;20040;-72
2023/04/06 12:07:52;;;;;;;14.77;8.10;;;24.20;99.90;;;;;;5050786;28;20024;-70
2023/04/06 12:10:18;;;;;;;13.35;7.85;;;24.70;99.90;;;;;;5071163;28;20423;-70
2023/04/06 12:12:43;;;;;;;12.82;7.80;;;25.30;99.90;;;;;;5071076;28;20035;-69
2023/04/06 12:15:09;;;;;;;14.20;9.27;;;25.40;99.90;;;;;;5071473;28;20039;-71
2023/04/06 12:17:35;;;;;;;14.13;8.20;;;25.90;99.90;;;;;;5070926;28;20017;-71
2023/04/06 12:20:02;;;;;;;14.13;7.22;;;26.10;99.90;;;;;;5072243;28;20028;-72
2023/04/06 12:22:28;;;;;;;15.93;8.23;;;26.40;99.90;;;;;;5071631;28;20024;-70
2023/04/06 12:24:54;;;;;;;12.95;7.28;;;26.30;99.90;;;;;;5072044;28;20029;-71
2023/04/06 12:27:20;;;;;;;12.82;7.07;;;26.70;99.90;;;;;;5071373;28;20021;-70
2023/04/06 12:29:45;;;;;;;9.75;7.13;;;26.90;99.90;;;;;;5071881;28;20104;-71
2023/04/06 12:32:11;;;;;;;10.60;6.85;;;27.00;99.90;;;;;;5072109;28;20025;-69
2023/04/06 12:34:38;;;;;;;10.70;7.57;;;26.90;99.90;;;;;;5071711;28;20025;-70
2023/04/06 12:37:04;;;;;;;13.98;7.90;;;27.60;99.90;;;;;;5071476;28;20051;-69
2023/04/06 12:39:30;;;;;;;15.95;7.28;;;27.50;99.90;;;;;;5071979;28;20379;-71
2023/04/06 12:41:57;;;;;;;12.38;7.72;;;27.50;99.90;;;;;;5071396;28;20028;-71
2023/04/06 12:44:22;;;;;;;12.38;9.20;;;27.20;99.90;;;;;;5071230;28;20482;-70
2023/04/06 12:46:48;;;;;;;18.13;10.23;;;27.30;99.90;;;;;;5071260;28;20021;-71